Almond, Wisconsin
Current Conditions -  °F | °C
As of 8:56 PM on Sunday 21 Dec 2014 (Local Time) from KY50 Reporting Station
Overcast Overcast  
Wind Chill: 27°   Ceiling: 1400
Heat Index: 36°   Visibility: 8mi
Dew Point: 33°   Wind: 15mph
Humidity: 89%   Direction: 160°SSE
Pressure: 29.94"   Gusts: 21mph
Location:  44.26°N, 89.41°W
Report Text: KY50 220256Z AUTO 16013G18KT 8SM OVC014 02/01 A2994 RMK AO2 TSNO 58008 T00220005 SLP144
Loading
Personal Weather Stations






























Interactive Weather Map New forecast layout! Learn more

10-Day Weather Forecast

Advertisements
Track Severe Weather on mobile